Ulan-Ude Airport (Mukhino)
UIUU : now visible

Airfield :











YOU CAN JOIN US ON...

 
LOGIN :

Register | Disclaimer

   EN    FR    IT 

 









Legend :    VFR   Marginal VFR   IFR   Intensive IFR   Very Intensive IFR
Visi :
Ceiling :
>= 8 km
>= 3000ft
5 to 8 km
1000 to 3000 ft
1500m to 5 km
500 to 1000 ft
800 to 1500m
200 to 500 ft
< 800m
< 200 ft
Symbols :   Thunderstorms  Fog  Heavy snow  Heavy precipitations  Wind > 20 kt







- Airport Elevation : 1690 ft
- IATA code : UUD


UIUU - Ulan-Ude (Mukhino)

CURRENT METAR :
  • 210330Z 16002MPS 9999 NSC 07/M18 Q1006 R08/CLRD60 NOSIG RMK QFE709/0946

EXPIRED METARs :
  • 210300Z 10003MPS 040V150 9999 NSC 05/M19 Q1006 R08/CLRD60 NOSIG RMK QFE710/0947
  • 210230Z 09003MPS 9999 NSC 04/M19 Q1007 R08/60D NOSIG RMK QFE710/0947
  • 210200Z 11004MPS 080V140 9999 NSC 03/M19 Q1007 R08/60D NOSIG RMK QFE710/0947
  • 210130Z 10007MPS 9999 NSC 02/M19 Q1008 R08/CLRD60 NOSIG RMK QFE711/0948
  • 210100Z 10006MPS 9999 NSC 00/M19 Q1009 R08/CLRD60 NOSIG RMK QFE711/0948

TAF TAF UIUU
Valid from the 21 at 03:00 until the 22 at 03:00 UTC


210200Z 2103/2203 10005G10MPS 9999 NSC
TEMPO 2103/2115 24003G08MPS
BECMG 2115/2117 34008G13MPS BKN014CB
UIII FIR / Asia



MET'MAP, your aeronautical weather chart ! - Copyright ORBIFLY December 2007 - Disclaimer

ORBIFLY MET'MAP TEAM :

Programming & Development : Alexandra Zaïnal
Concept & Development : Baudouin d'Aumeries
Co-Development & Prog : Marc-Olivier Méhu
Technical & hardware support : Manuel Goepfert

Contact : metmap@orbifly.com




SOURCES & CREDITS :

   NOAA       Earth
Advisory